Terminal Aerodrome Forecast
Issued by NWS Memphis, TN

Home | Current Version | Previous Version | Text Only | Print | Product List | Glossary On
Versions: 1 2 3 4 5 6 7 8 9 10 11 12 13 14 15 16
770
FTUS44 KMEG 181132
TAFJBR
TAF
KJBR 181132Z 1812/1912 20022G30KT P6SM VCSH BKN025 OVC040
     FM181700 22022G30KT P6SM VCSH BKN020 OVC035
      TEMPO 1818/1820 3SM TSRA BR BKN012CB
     FM182000 30022G30KT P6SM VCSH BKN035
     FM190000 31015G22KT P6SM SCT040
     FM190300 31010KT P6SM SKC=

USA.gov is the U.S. government's official web portal to all federal, state and local government web resources and services.